sensor_id;sensor_type;location;lat;lon;timestamp;temperature;humidity
12166;DHT22;6146;48.128;11.476;2023-04-15T00:00:10;6.00;99.90
12166;DHT22;6146;48.128;11.476;2023-04-15T00:02:36;6.00;99.90
12166;DHT22;6146;48.128;11.476;2023-04-15T00:05:03;6.00;99.90
12166;DHT22;6146;48.128;11.476;2023-04-15T00:07:29;6.00;99.90
12166;DHT22;6146;48.128;11.476;2023-04-15T00:09:56;6.00;99.90
12166;DHT22;6146;48.128;11.476;2023-04-15T00:12:23;6.00;99.90
12166;DHT22;6146;48.128;11.476;2023-04-15T00:14:48;6.00;99.90
12166;DHT22;6146;48.128;11.476;2023-04-15T00:17:14;6.00;99.90
12166;DHT22;6146;48.128;11.476;2023-04-15T00:19:40;6.00;99.90
12166;DHT22;6146;48.128;11.476;2023-04-15T00:22:06;6.00;99.90
12166;DHT22;6146;48.128;11.476;2023-04-15T00:24:32;6.00;99.90
12166;DHT22;6146;48.128;11.476;2023-04-15T00:26:58;6.00;99.90
12166;DHT22;6146;48.128;11.476;2023-04-15T00:29:24;6.00;99.90
12166;DHT22;6146;48.128;11.476;2023-04-15T00:31:50;6.00;99.90
12166;DHT22;6146;48.128;11.476;2023-04-15T00:34:15;6.00;99.90
12166;DHT22;6146;48.128;11.476;2023-04-15T00:36:42;6.00;99.90
12166;DHT22;6146;48.128;11.476;2023-04-15T00:39:07;6.00;99.90
12166;DHT22;6146;48.128;11.476;2023-04-15T00:41:33;5.90;99.90
12166;DHT22;6146;48.128;11.476;2023-04-15T00:44:00;5.90;99.90
12166;DHT22;6146;48.128;11.476;2023-04-15T00:46:27;6.00;99.90
12166;DHT22;6146;48.128;11.476;2023-04-15T00:48:54;5.90;99.90
12166;DHT22;6146;48.128;11.476;2023-04-15T00:51:19;5.90;99.90
12166;DHT22;6146;48.128;11.476;2023-04-15T00:53:45;5.90;99.90
12166;DHT22;6146;48.128;11.476;2023-04-15T00:56:11;5.90;99.90
12166;DHT22;6146;48.128;11.476;2023-04-15T00:58:36;5.90;99.90
12166;DHT22;6146;48.128;11.476;2023-04-15T01:01:03;5.90;99.90
12166;DHT22;6146;48.128;11.476;2023-04-15T01:03:29;5.90;99.90
12166;DHT22;6146;48.128;11.476;2023-04-15T01:05:55;5.90;99.90
12166;DHT22;6146;48.128;11.476;2023-04-15T01:08:31;5.80;99.90
12166;DHT22;6146;48.128;11.476;2023-04-15T01:11:00;5.80;99.90
12166;DHT22;6146;48.128;11.476;2023-04-15T01:13:28;5.80;99.90
12166;DHT22;6146;48.128;11.476;2023-04-15T01:15:55;5.80;99.90
12166;DHT22;6146;48.128;11.476;2023-04-15T01:18:21;5.70;99.90
12166;DHT22;6146;48.128;11.476;2023-04-15T01:20:47;5.80;99.90
12166;DHT22;6146;48.128;11.476;2023-04-15T01:23:13;5.80;99.90
12166;DHT22;6146;48.128;11.476;2023-04-15T01:25:38;5.80;99.90
12166;DHT22;6146;48.128;11.476;2023-04-15T01:28:05;5.80;99.90
12166;DHT22;6146;48.128;11.476;2023-04-15T01:30:33;5.80;99.90
12166;DHT22;6146;48.128;11.476;2023-04-15T01:32:59;5.80;99.90
12166;DHT22;6146;48.128;11.476;2023-04-15T01:35:25;5.80;99.90
12166;DHT22;6146;48.128;11.476;2023-04-15T01:37:52;5.80;99.90
12166;DHT22;6146;48.128;11.476;2023-04-15T01:40:18;5.80;99.90
12166;DHT22;6146;48.128;11.476;2023-04-15T01:42:45;5.80;99.90
12166;DHT22;6146;48.128;11.476;2023-04-15T01:45:11;5.90;99.90
12166;DHT22;6146;48.128;11.476;2023-04-15T01:47:37;5.90;99.90
12166;DHT22;6146;48.128;11.476;2023-04-15T01:50:03;5.90;99.90
12166;DHT22;6146;48.128;11.476;2023-04-15T01:52:29;5.90;99.90
12166;DHT22;6146;48.128;11.476;2023-04-15T01:54:55;5.90;99.90
12166;DHT22;6146;48.128;11.476;2023-04-15T01:57:20;5.90;99.90
12166;DHT22;6146;48.128;11.476;2023-04-15T01:59:46;5.90;99.90
12166;DHT22;6146;48.128;11.476;2023-04-15T02:02:11;5.90;99.90
12166;DHT22;6146;48.128;11.476;2023-04-15T02:04:37;6.00;99.90
12166;DHT22;6146;48.128;11.476;2023-04-15T02:07:03;6.00;99.90
12166;DHT22;6146;48.128;11.476;2023-04-15T02:09:28;5.90;99.90
12166;DHT22;6146;48.128;11.476;2023-04-15T02:11:54;5.90;99.90
12166;DHT22;6146;48.128;11.476;2023-04-15T02:14:20;5.90;99.90
12166;DHT22;6146;48.128;11.476;2023-04-15T02:16:45;5.90;99.90
12166;DHT22;6146;48.128;11.476;2023-04-15T02:19:11;5.90;99.90
12166;DHT22;6146;48.128;11.476;2023-04-15T02:21:37;5.80;99.90
12166;DHT22;6146;48.128;11.476;2023-04-15T02:24:02;5.80;99.90
12166;DHT22;6146;48.128;11.476;2023-04-15T02:26:28;5.80;99.90
12166;DHT22;6146;48.128;11.476;2023-04-15T02:28:56;5.80;99.90
12166;DHT22;6146;48.128;11.476;2023-04-15T02:31:22;5.80;99.90
12166;DHT22;6146;48.128;11.476;2023-04-15T02:33:48;5.80;99.90
12166;DHT22;6146;48.128;11.476;2023-04-15T02:36:13;5.80;99.90
12166;DHT22;6146;48.128;11.476;2023-04-15T02:38:39;5.80;99.90
12166;DHT22;6146;48.128;11.476;2023-04-15T02:41:06;5.90;99.90
12166;DHT22;6146;48.128;11.476;2023-04-15T02:43:32;5.90;99.90
12166;DHT22;6146;48.128;11.476;2023-04-15T02:45:58;5.90;99.90
12166;DHT22;6146;48.128;11.476;2023-04-15T02:48:24;5.90;99.90
12166;DHT22;6146;48.128;11.476;2023-04-15T02:50:49;5.90;99.90
12166;DHT22;6146;48.128;11.476;2023-04-15T02:53:15;5.90;99.90
12166;DHT22;6146;48.128;11.476;2023-04-15T02:55:41;5.90;99.90
12166;DHT22;6146;48.128;11.476;2023-04-15T02:58:07;5.90;99.90
12166;DHT22;6146;48.128;11.476;2023-04-15T03:00:32;5.90;99.90
12166;DHT22;6146;48.128;11.476;2023-04-15T03:03:02;5.80;99.90
12166;DHT22;6146;48.128;11.476;2023-04-15T03:05:28;5.80;99.90
12166;DHT22;6146;48.128;11.476;2023-04-15T03:07:54;5.80;99.90
12166;DHT22;6146;48.128;11.476;2023-04-15T03:10:20;5.80;99.90
12166;DHT22;6146;48.128;11.476;2023-04-15T03:12:46;5.70;99.90
12166;DHT22;6146;48.128;11.476;2023-04-15T03:15:12;5.70;99.90
12166;DHT22;6146;48.128;11.476;2023-04-15T03:17:37;5.80;99.90
12166;DHT22;6146;48.128;11.476;2023-04-15T03:20:04;5.80;99.90
12166;DHT22;6146;48.128;11.476;2023-04-15T03:22:33;5.70;99.90
12166;DHT22;6146;48.128;11.476;2023-04-15T03:24:59;5.80;99.90
12166;DHT22;6146;48.128;11.476;2023-04-15T03:27:24;5.70;99.90
12166;DHT22;6146;48.128;11.476;2023-04-15T03:29:50;5.80;99.90
12166;DHT22;6146;48.128;11.476;2023-04-15T03:32:16;5.80;99.90
12166;DHT22;6146;48.128;11.476;2023-04-15T03:34:42;5.80;99.90
12166;DHT22;6146;48.128;11.476;2023-04-15T03:37:08;5.80;99.90
12166;DHT22;6146;48.128;11.476;2023-04-15T03:39:34;5.90;99.90
12166;DHT22;6146;48.128;11.476;2023-04-15T03:42:00;5.90;99.90
12166;DHT22;6146;48.128;11.476;2023-04-15T03:44:26;5.80;99.90
12166;DHT22;6146;48.128;11.476;2023-04-15T03:46:52;5.90;99.90
12166;DHT22;6146;48.128;11.476;2023-04-15T03:49:18;5.90;99.90
12166;DHT22;6146;48.128;11.476;2023-04-15T03:51:44;5.90;99.90
12166;DHT22;6146;48.128;11.476;2023-04-15T03:54:09;5.90;99.90
12166;DHT22;6146;48.128;11.476;2023-04-15T03:56:36;5.90;99.90
12166;DHT22;6146;48.128;11.476;2023-04-15T03:59:01;5.90;99.90
12166;DHT22;6146;48.128;11.476;2023-04-15T04:01:27;5.90;99.90
12166;DHT22;6146;48.128;11.476;2023-04-15T04:03:52;5.90;99.90
12166;DHT22;6146;48.128;11.476;2023-04-15T04:06:18;5.90;99.90
12166;DHT22;6146;48.128;11.476;2023-04-15T04:08:44;5.80;99.90
12166;DHT22;6146;48.128;11.476;2023-04-15T04:11:10;5.80;99.90
12166;DHT22;6146;48.128;11.476;2023-04-15T04:13:35;5.90;99.90
12166;DHT22;6146;48.128;11.476;2023-04-15T04:16:01;5.80;99.90
12166;DHT22;6146;48.128;11.476;2023-04-15T04:18:29;5.80;99.90
12166;DHT22;6146;48.128;11.476;2023-04-15T04:20:55;5.80;99.90
12166;DHT22;6146;48.128;11.476;2023-04-15T04:23:21;5.80;99.90
12166;DHT22;6146;48.128;11.476;2023-04-15T04:25:46;5.80;99.90
12166;DHT22;6146;48.128;11.476;2023-04-15T04:28:12;5.80;99.90
12166;DHT22;6146;48.128;11.476;2023-04-15T04:30:38;5.80;99.90
12166;DHT22;6146;48.128;11.476;2023-04-15T04:33:03;5.80;99.90
12166;DHT22;6146;48.128;11.476;2023-04-15T04:35:29;5.80;99.90
12166;DHT22;6146;48.128;11.476;2023-04-15T04:37:54;5.80;99.90
12166;DHT22;6146;48.128;11.476;2023-04-15T04:40:20;5.90;99.90
12166;DHT22;6146;48.128;11.476;2023-04-15T04:42:46;5.90;99.90
12166;DHT22;6146;48.128;11.476;2023-04-15T04:45:12;6.00;99.90
12166;DHT22;6146;48.128;11.476;2023-04-15T04:47:37;5.90;99.90
12166;DHT22;6146;48.128;11.476;2023-04-15T04:50:03;5.90;99.90
12166;DHT22;6146;48.128;11.476;2023-04-15T04:52:29;5.90;99.90
12166;DHT22;6146;48.128;11.476;2023-04-15T04:54:54;5.90;99.90
12166;DHT22;6146;48.128;11.476;2023-04-15T04:57:20;5.90;99.90
12166;DHT22;6146;48.128;11.476;2023-04-15T04:59:46;5.90;99.90
12166;DHT22;6146;48.128;11.476;2023-04-15T05:02:11;5.90;99.90
12166;DHT22;6146;48.128;11.476;2023-04-15T05:04:37;6.00;99.90
12166;DHT22;6146;48.128;11.476;2023-04-15T05:07:03;6.00;99.90
12166;DHT22;6146;48.128;11.476;2023-04-15T05:09:28;6.10;99.90
12166;DHT22;6146;48.128;11.476;2023-04-15T05:11:56;6.10;99.90
12166;DHT22;6146;48.128;11.476;2023-04-15T05:14:22;6.10;99.90
12166;DHT22;6146;48.128;11.476;2023-04-15T05:16:47;6.10;99.90
12166;DHT22;6146;48.128;11.476;2023-04-15T05:19:13;6.10;99.90
12166;DHT22;6146;48.128;11.476;2023-04-15T05:21:38;6.10;99.90
12166;DHT22;6146;48.128;11.476;2023-04-15T05:24:04;6.20;99.90
12166;DHT22;6146;48.128;11.476;2023-04-15T05:26:30;6.20;99.90
12166;DHT22;6146;48.128;11.476;2023-04-15T05:28:55;6.20;99.90
12166;DHT22;6146;48.128;11.476;2023-04-15T05:31:21;6.20;99.90
12166;DHT22;6146;48.128;11.476;2023-04-15T05:33:47;6.20;99.90
12166;DHT22;6146;48.128;11.476;2023-04-15T05:36:12;6.20;99.90
12166;DHT22;6146;48.128;11.476;2023-04-15T05:38:38;6.20;99.90
12166;DHT22;6146;48.128;11.476;2023-04-15T05:41:03;6.30;99.90
12166;DHT22;6146;48.128;11.476;2023-04-15T05:43:29;6.20;99.90
12166;DHT22;6146;48.128;11.476;2023-04-15T05:45:55;6.30;99.90
12166;DHT22;6146;48.128;11.476;2023-04-15T05:48:20;6.30;99.90
12166;DHT22;6146;48.128;11.476;2023-04-15T05:50:46;6.30;99.90
12166;DHT22;6146;48.128;11.476;2023-04-15T05:53:12;6.40;99.90
12166;DHT22;6146;48.128;11.476;2023-04-15T05:55:37;6.40;99.90
12166;DHT22;6146;48.128;11.476;2023-04-15T05:58:03;6.50;99.90
12166;DHT22;6146;48.128;11.476;2023-04-15T06:00:28;6.50;99.90
12166;DHT22;6146;48.128;11.476;2023-04-15T06:02:55;6.50;99.90
12166;DHT22;6146;48.128;11.476;2023-04-15T06:05:21;6.50;99.90
12166;DHT22;6146;48.128;11.476;2023-04-15T06:07:46;6.60;99.90
12166;DHT22;6146;48.128;11.476;2023-04-15T06:10:12;6.60;99.90
12166;DHT22;6146;48.128;11.476;2023-04-15T06:12:37;6.60;99.90
12166;DHT22;6146;48.128;11.476;2023-04-15T06:15:04;6.70;99.90
12166;DHT22;6146;48.128;11.476;2023-04-15T06:17:30;6.80;99.90
12166;DHT22;6146;48.128;11.476;2023-04-15T06:19:56;6.70;99.90
12166;DHT22;6146;48.128;11.476;2023-04-15T06:22:22;6.70;99.90
12166;DHT22;6146;48.128;11.476;2023-04-15T06:24:48;6.70;99.90
12166;DHT22;6146;48.128;11.476;2023-04-15T06:27:17;6.80;99.90
12166;DHT22;6146;48.128;11.476;2023-04-15T06:29:42;6.80;99.90
12166;DHT22;6146;48.128;11.476;2023-04-15T06:32:08;6.90;99.90
12166;DHT22;6146;48.128;11.476;2023-04-15T06:34:34;7.00;99.90
12166;DHT22;6146;48.128;11.476;2023-04-15T06:37:00;7.10;99.90
12166;DHT22;6146;48.128;11.476;2023-04-15T06:39:25;7.10;99.90
12166;DHT22;6146;48.128;11.476;2023-04-15T06:41:51;7.20;99.90
12166;DHT22;6146;48.128;11.476;2023-04-15T06:44:17;7.20;99.90
12166;DHT22;6146;48.128;11.476;2023-04-15T06:46:43;7.30;99.90
12166;DHT22;6146;48.128;11.476;2023-04-15T06:49:09;7.50;99.90
12166;DHT22;6146;48.128;11.476;2023-04-15T06:51:35;7.70;99.90
12166;DHT22;6146;48.128;11.476;2023-04-15T06:54:01;7.70;99.90
12166;DHT22;6146;48.128;11.476;2023-04-15T06:56:27;7.80;99.90
12166;DHT22;6146;48.128;11.476;2023-04-15T06:58:52;7.90;99.90
12166;DHT22;6146;48.128;11.476;2023-04-15T07:01:18;7.80;99.90
12166;DHT22;6146;48.128;11.476;2023-04-15T07:03:44;7.70;99.90
12166;DHT22;6146;48.128;11.476;2023-04-15T07:06:10;7.60;99.90
12166;DHT22;6146;48.128;11.476;2023-04-15T07:08:36;7.80;99.90
12166;DHT22;6146;48.128;11.476;2023-04-15T07:11:02;7.80;99.90
12166;DHT22;6146;48.128;11.476;2023-04-15T07:13:30;7.90;99.90
12166;DHT22;6146;48.128;11.476;2023-04-15T07:15:55;8.10;99.90
12166;DHT22;6146;48.128;11.476;2023-04-15T07:18:21;8.30;99.90
12166;DHT22;6146;48.128;11.476;2023-04-15T07:20:47;8.40;99.90
12166;DHT22;6146;48.128;11.476;2023-04-15T07:23:13;8.50;99.90
12166;DHT22;6146;48.128;11.476;2023-04-15T07:25:38;8.60;99.90
12166;DHT22;6146;48.128;11.476;2023-04-15T07:28:04;8.80;99.90
12166;DHT22;6146;48.128;11.476;2023-04-15T07:30:30;7.90;99.90
12166;DHT22;6146;48.128;11.476;2023-04-15T07:32:56;9.00;99.90
12166;DHT22;6146;48.128;11.476;2023-04-15T07:35:23;9.30;99.90
12166;DHT22;6146;48.128;11.476;2023-04-15T07:37:50;9.50;99.90
12166;DHT22;6146;48.128;11.476;2023-04-15T07:40:16;9.60;99.90
12166;DHT22;6146;48.128;11.476;2023-04-15T07:42:42;9.80;99.90
12166;DHT22;6146;48.128;11.476;2023-04-15T07:45:08;10.00;99.90
12166;DHT22;6146;48.128;11.476;2023-04-15T07:47:34;10.50;99.90
12166;DHT22;6146;48.128;11.476;2023-04-15T07:50:00;10.80;99.90
12166;DHT22;6146;48.128;11.476;2023-04-15T07:52:26;11.00;99.90
12166;DHT22;6146;48.128;11.476;2023-04-15T07:54:52;11.40;99.90
12166;DHT22;6146;48.128;11.476;2023-04-15T07:57:18;11.80;99.90
12166;DHT22;6146;48.128;11.476;2023-04-15T07:59:44;12.30;99.90
12166;DHT22;6146;48.128;11.476;2023-04-15T08:02:10;12.50;99.90
12166;DHT22;6146;48.128;11.476;2023-04-15T08:04:36;12.90;99.90
12166;DHT22;6146;48.128;11.476;2023-04-15T08:07:02;13.20;99.90
12166;DHT22;6146;48.128;11.476;2023-04-15T08:09:28;13.40;99.90
12166;DHT22;6146;48.128;11.476;2023-04-15T08:11:54;13.50;99.90
12166;DHT22;6146;48.128;11.476;2023-04-15T08:14:20;13.70;99.90
12166;DHT22;6146;48.128;11.476;2023-04-15T08:16:46;13.90;99.90
12166;DHT22;6146;48.128;11.476;2023-04-15T08:19:12;14.10;99.90
12166;DHT22;6146;48.128;11.476;2023-04-15T08:21:37;13.80;99.90
12166;DHT22;6146;48.128;11.476;2023-04-15T08:24:03;13.90;99.90
12166;DHT22;6146;48.128;11.476;2023-04-15T08:26:28;13.60;99.90
12166;DHT22;6146;48.128;11.476;2023-04-15T08:28:54;13.50;99.90
12166;DHT22;6146;48.128;11.476;2023-04-15T08:31:20;13.20;99.90
12166;DHT22;6146;48.128;11.476;2023-04-15T08:33:46;12.90;99.90
12166;DHT22;6146;48.128;11.476;2023-04-15T08:36:11;12.70;99.90
12166;DHT22;6146;48.128;11.476;2023-04-15T08:38:39;12.80;99.90
12166;DHT22;6146;48.128;11.476;2023-04-15T08:41:25;12.40;99.90
12166;DHT22;6146;48.128;11.476;2023-04-15T08:43:53;11.90;99.90
12166;DHT22;6146;48.128;11.476;2023-04-15T08:46:21;11.60;99.90
12166;DHT22;6146;48.128;11.476;2023-04-15T08:48:47;11.40;99.90
12166;DHT22;6146;48.128;11.476;2023-04-15T08:51:13;11.30;99.90
12166;DHT22;6146;48.128;11.476;2023-04-15T08:53:44;11.40;99.90
12166;DHT22;6146;48.128;11.476;2023-04-15T08:56:12;11.30;99.90
12166;DHT22;6146;48.128;11.476;2023-04-15T08:58:38;11.20;99.90
12166;DHT22;6146;48.128;11.476;2023-04-15T09:01:04;11.10;99.90
12166;DHT22;6146;48.128;11.476;2023-04-15T09:03:29;10.90;99.90
12166;DHT22;6146;48.128;11.476;2023-04-15T09:05:56;10.80;99.90
12166;DHT22;6146;48.128;11.476;2023-04-15T09:08:22;10.60;99.90
12166;DHT22;6146;48.128;11.476;2023-04-15T09:10:48;10.60;99.90
12166;DHT22;6146;48.128;11.476;2023-04-15T09:13:14;10.90;99.90
12166;DHT22;6146;48.128;11.476;2023-04-15T09:15:39;11.00;99.90
12166;DHT22;6146;48.128;11.476;2023-04-15T09:18:05;11.10;99.90
12166;DHT22;6146;48.128;11.476;2023-04-15T09:20:41;11.30;99.90
12166;DHT22;6146;48.128;11.476;2023-04-15T09:23:13;11.20;99.90
12166;DHT22;6146;48.128;11.476;2023-04-15T09:25:40;11.20;99.90
12166;DHT22;6146;48.128;11.476;2023-04-15T09:28:09;11.60;99.90
12166;DHT22;6146;48.128;11.476;2023-04-15T09:30:35;12.00;99.90
12166;DHT22;6146;48.128;11.476;2023-04-15T09:33:02;12.10;99.90
12166;DHT22;6146;48.128;11.476;2023-04-15T09:35:32;12.00;99.90
12166;DHT22;6146;48.128;11.476;2023-04-15T09:38:05;11.90;99.90
12166;DHT22;6146;48.128;11.476;2023-04-15T09:40:37;12.00;99.90
12166;DHT22;6146;48.128;11.476;2023-04-15T09:43:03;12.20;99.90
12166;DHT22;6146;48.128;11.476;2023-04-15T09:45:31;12.20;99.90
12166;DHT22;6146;48.128;11.476;2023-04-15T09:47:57;12.30;99.90
12166;DHT22;6146;48.128;11.476;2023-04-15T09:50:26;12.50;99.90
12166;DHT22;6146;48.128;11.476;2023-04-15T09:52:53;12.70;99.90
12166;DHT22;6146;48.128;11.476;2023-04-15T09:55:19;14.00;99.90
12166;DHT22;6146;48.128;11.476;2023-04-15T09:57:45;13.20;99.90
12166;DHT22;6146;48.128;11.476;2023-04-15T10:00:14;13.20;99.90
12166;DHT22;6146;48.128;11.476;2023-04-15T10:02:41;13.10;99.90
12166;DHT22;6146;48.128;11.476;2023-04-15T10:05:09;12.90;99.90
12166;DHT22;6146;48.128;11.476;2023-04-15T10:07:35;12.60;99.90
12166;DHT22;6146;48.128;11.476;2023-04-15T10:10:02;12.50;99.90
12166;DHT22;6146;48.128;11.476;2023-04-15T10:12:28;12.50;99.90
12166;DHT22;6146;48.128;11.476;2023-04-15T10:14:58;12.60;99.90
12166;DHT22;6146;48.128;11.476;2023-04-15T10:17:26;12.70;99.90
12166;DHT22;6146;48.128;11.476;2023-04-15T10:20:00;12.70;99.90
12166;DHT22;6146;48.128;11.476;2023-04-15T10:22:27;12.60;99.90
12166;DHT22;6146;48.128;11.476;2023-04-15T10:24:54;12.40;99.90
12166;DHT22;6146;48.128;11.476;2023-04-15T10:27:20;12.20;99.90
12166;DHT22;6146;48.128;11.476;2023-04-15T10:29:47;12.30;99.90
12166;DHT22;6146;48.128;11.476;2023-04-15T10:32:14;12.20;99.90
12166;DHT22;6146;48.128;11.476;2023-04-15T10:34:40;12.20;99.90
12166;DHT22;6146;48.128;11.476;2023-04-15T10:37:09;12.20;99.90
12166;DHT22;6146;48.128;11.476;2023-04-15T10:42:16;12.20;99.90
12166;DHT22;6146;48.128;11.476;2023-04-15T10:44:55;12.30;99.90
12166;DHT22;6146;48.128;11.476;2023-04-15T10:47:21;12.50;99.90
12166;DHT22;6146;48.128;11.476;2023-04-15T10:49:50;12.50;99.90
12166;DHT22;6146;48.128;11.476;2023-04-15T10:52:21;12.30;99.90
12166;DHT22;6146;48.128;11.476;2023-04-15T10:54:47;12.40;99.90
12166;DHT22;6146;48.128;11.476;2023-04-15T10:57:16;12.70;99.90
12166;DHT22;6146;48.128;11.476;2023-04-15T11:05:10;12.60;99.90
12166;DHT22;6146;48.128;11.476;2023-04-15T11:12:46;12.60;99.90
12166;DHT22;6146;48.128;11.476;2023-04-15T11:15:32;12.70;99.90
12166;DHT22;6146;48.128;11.476;2023-04-15T11:20:33;13.10;99.90
12166;DHT22;6146;48.128;11.476;2023-04-15T11:22:58;13.00;99.90
12166;DHT22;6146;48.128;11.476;2023-04-15T11:25:25;12.90;99.90
12166;DHT22;6146;48.128;11.476;2023-04-15T11:27:52;12.80;99.90
12166;DHT22;6146;48.128;11.476;2023-04-15T11:30:21;12.50;99.90
12166;DHT22;6146;48.128;11.476;2023-04-15T11:32:48;12.10;99.90
12166;DHT22;6146;48.128;11.476;2023-04-15T11:35:15;11.80;99.90
12166;DHT22;6146;48.128;11.476;2023-04-15T11:37:41;11.60;99.90
12166;DHT22;6146;48.128;11.476;2023-04-15T11:40:08;11.60;99.90
12166;DHT22;6146;48.128;11.476;2023-04-15T11:42:33;11.40;99.90
12166;DHT22;6146;48.128;11.476;2023-04-15T11:45:09;11.30;99.90
12166;DHT22;6146;48.128;11.476;2023-04-15T11:47:36;11.30;99.90
12166;DHT22;6146;48.128;11.476;2023-04-15T11:50:20;11.30;99.90
12166;DHT22;6146;48.128;11.476;2023-04-15T11:53:00;11.30;99.90
12166;DHT22;6146;48.128;11.476;2023-04-15T11:55:26;11.10;99.90
12166;DHT22;6146;48.128;11.476;2023-04-15T11:58:20;10.80;99.90
12166;DHT22;6146;48.128;11.476;2023-04-15T12:03:23;10.50;99.90
12166;DHT22;6146;48.128;11.476;2023-04-15T12:08:57;10.20;99.90
12166;DHT22;6146;48.128;11.476;2023-04-15T12:13:58;10.20;99.90
12166;DHT22;6146;48.128;11.476;2023-04-15T12:16:27;10.20;99.90
12166;DHT22;6146;48.128;11.476;2023-04-15T12:18:57;10.30;99.90
12166;DHT22;6146;48.128;11.476;2023-04-15T12:21:25;10.40;99.90
12166;DHT22;6146;48.128;11.476;2023-04-15T12:23:52;10.40;99.90
12166;DHT22;6146;48.128;11.476;2023-04-15T12:26:26;10.40;99.90
12166;DHT22;6146;48.128;11.476;2023-04-15T12:29:00;10.40;99.90
12166;DHT22;6146;48.128;11.476;2023-04-15T12:31:26;10.60;99.90
12166;DHT22;6146;48.128;11.476;2023-04-15T12:33:54;10.80;99.90
12166;DHT22;6146;48.128;11.476;2023-04-15T12:36:20;10.80;99.90
12166;DHT22;6146;48.128;11.476;2023-04-15T12:38:46;10.90;99.90
12166;DHT22;6146;48.128;11.476;2023-04-15T12:41:11;11.10;99.90
12166;DHT22;6146;48.128;11.476;2023-04-15T12:43:37;11.20;99.90
12166;DHT22;6146;48.128;11.476;2023-04-15T12:46:02;11.50;99.90
12166;DHT22;6146;48.128;11.476;2023-04-15T12:48:29;11.60;99.90
12166;DHT22;6146;48.128;11.476;2023-04-15T12:50:55;11.60;99.90
12166;DHT22;6146;48.128;11.476;2023-04-15T12:53:20;11.80;99.90
12166;DHT22;6146;48.128;11.476;2023-04-15T12:55:46;11.90;99.90
12166;DHT22;6146;48.128;11.476;2023-04-15T12:58:11;11.90;99.90
12166;DHT22;6146;48.128;11.476;2023-04-15T13:00:37;12.10;99.90
12166;DHT22;6146;48.128;11.476;2023-04-15T13:03:03;12.00;99.90
12166;DHT22;6146;48.128;11.476;2023-04-15T13:05:29;11.90;99.90
12166;DHT22;6146;48.128;11.476;2023-04-15T13:07:54;11.70;99.90
12166;DHT22;6146;48.128;11.476;2023-04-15T13:10:20;11.60;99.90
12166;DHT22;6146;48.128;11.476;2023-04-15T13:12:48;11.50;99.90
12166;DHT22;6146;48.128;11.476;2023-04-15T13:15:16;11.40;99.90
12166;DHT22;6146;48.128;11.476;2023-04-15T13:17:45;11.30;99.90
12166;DHT22;6146;48.128;11.476;2023-04-15T13:20:10;11.20;99.90
12166;DHT22;6146;48.128;11.476;2023-04-15T13:22:36;11.10;99.90
12166;DHT22;6146;48.128;11.476;2023-04-15T13:25:02;11.10;99.90
12166;DHT22;6146;48.128;11.476;2023-04-15T13:27:27;11.00;99.90
12166;DHT22;6146;48.128;11.476;2023-04-15T13:29:53;10.90;99.90
12166;DHT22;6146;48.128;11.476;2023-04-15T13:32:19;10.80;99.90
12166;DHT22;6146;48.128;11.476;2023-04-15T13:34:44;10.80;99.90
12166;DHT22;6146;48.128;11.476;2023-04-15T13:37:10;10.90;99.90
12166;DHT22;6146;48.128;11.476;2023-04-15T13:39:35;10.80;99.90
12166;DHT22;6146;48.128;11.476;2023-04-15T13:42:01;10.60;99.90
12166;DHT22;6146;48.128;11.476;2023-04-15T13:44:27;10.40;99.90
12166;DHT22;6146;48.128;11.476;2023-04-15T13:46:53;10.50;99.90
12166;DHT22;6146;48.128;11.476;2023-04-15T13:49:18;10.30;99.90
12166;DHT22;6146;48.128;11.476;2023-04-15T13:51:44;10.20;99.90
12166;DHT22;6146;48.128;11.476;2023-04-15T13:54:09;10.10;99.90
12166;DHT22;6146;48.128;11.476;2023-04-15T13:56:35;10.00;99.90
12166;DHT22;6146;48.128;11.476;2023-04-15T13:59:01;10.00;99.90
12166;DHT22;6146;48.128;11.476;2023-04-15T14:01:27;9.90;99.90
12166;DHT22;6146;48.128;11.476;2023-04-15T14:03:53;9.90;99.90
12166;DHT22;6146;48.128;11.476;2023-04-15T14:06:19;9.90;99.90
12166;DHT22;6146;48.128;11.476;2023-04-15T14:08:44;10.00;99.90
12166;DHT22;6146;48.128;11.476;2023-04-15T14:11:10;10.20;99.90
12166;DHT22;6146;48.128;11.476;2023-04-15T14:13:36;10.20;99.90
12166;DHT22;6146;48.128;11.476;2023-04-15T14:16:02;10.20;99.90
12166;DHT22;6146;48.128;11.476;2023-04-15T14:18:27;10.30;99.90
12166;DHT22;6146;48.128;11.476;2023-04-15T14:20:54;10.50;99.90
12166;DHT22;6146;48.128;11.476;2023-04-15T14:23:19;10.50;99.90
12166;DHT22;6146;48.128;11.476;2023-04-15T14:25:45;10.40;99.90
12166;DHT22;6146;48.128;11.476;2023-04-15T14:28:11;10.40;99.90
12166;DHT22;6146;48.128;11.476;2023-04-15T14:30:36;10.50;99.90
12166;DHT22;6146;48.128;11.476;2023-04-15T14:33:02;10.70;99.90
12166;DHT22;6146;48.128;11.476;2023-04-15T14:35:28;10.90;99.90
12166;DHT22;6146;48.128;11.476;2023-04-15T14:37:54;11.00;99.90
12166;DHT22;6146;48.128;11.476;2023-04-15T14:40:20;11.00;99.90
12166;DHT22;6146;48.128;11.476;2023-04-15T14:42:46;11.00;99.90
12166;DHT22;6146;48.128;11.476;2023-04-15T14:45:11;11.00;99.90
12166;DHT22;6146;48.128;11.476;2023-04-15T14:47:37;11.00;99.90
12166;DHT22;6146;48.128;11.476;2023-04-15T14:50:03;10.80;99.90
12166;DHT22;6146;48.128;11.476;2023-04-15T14:52:32;10.80;99.90
12166;DHT22;6146;48.128;11.476;2023-04-15T14:55:07;10.60;99.90
12166;DHT22;6146;48.128;11.476;2023-04-15T14:57:34;10.50;99.90
12166;DHT22;6146;48.128;11.476;2023-04-15T15:00:00;10.60;99.90
12166;DHT22;6146;48.128;11.476;2023-04-15T15:02:25;10.70;99.90
12166;DHT22;6146;48.128;11.476;2023-04-15T15:04:51;10.70;99.90
12166;DHT22;6146;48.128;11.476;2023-04-15T15:07:17;10.80;99.90
12166;DHT22;6146;48.128;11.476;2023-04-15T15:09:42;10.60;99.90
12166;DHT22;6146;48.128;11.476;2023-04-15T15:12:08;10.40;99.90
12166;DHT22;6146;48.128;11.476;2023-04-15T15:14:33;10.30;99.90
12166;DHT22;6146;48.128;11.476;2023-04-15T15:16:59;10.10;99.90
12166;DHT22;6146;48.128;11.476;2023-04-15T15:19:25;9.80;99.90
12166;DHT22;6146;48.128;11.476;2023-04-15T15:21:50;9.70;99.90
12166;DHT22;6146;48.128;11.476;2023-04-15T15:24:16;9.40;99.90
12166;DHT22;6146;48.128;11.476;2023-04-15T15:26:42;9.20;99.90
12166;DHT22;6146;48.128;11.476;2023-04-15T15:29:07;9.00;99.90
12166;DHT22;6146;48.128;11.476;2023-04-15T15:31:34;8.90;99.90
12166;DHT22;6146;48.128;11.476;2023-04-15T15:34:00;8.80;99.90
12166;DHT22;6146;48.128;11.476;2023-04-15T15:36:25;8.70;99.90
12166;DHT22;6146;48.128;11.476;2023-04-15T15:38:51;8.60;99.90
12166;DHT22;6146;48.128;11.476;2023-04-15T15:41:17;8.50;99.90
12166;DHT22;6146;48.128;11.476;2023-04-15T15:43:42;8.40;99.90
12166;DHT22;6146;48.128;11.476;2023-04-15T15:46:08;8.30;99.90
12166;DHT22;6146;48.128;11.476;2023-04-15T15:48:34;8.30;99.90
12166;DHT22;6146;48.128;11.476;2023-04-15T15:51:00;8.20;99.90
12166;DHT22;6146;48.128;11.476;2023-04-15T15:53:26;8.20;99.90
12166;DHT22;6146;48.128;11.476;2023-04-15T15:55:51;8.30;99.90
12166;DHT22;6146;48.128;11.476;2023-04-15T15:58:17;8.60;99.90